Time;durP1;ratioP1;P1;durP2;ratioP2;P2;SDS_P1;SDS_P2;PMS_P1;PMS_P2;Temp;Humidity;BMP_temperature;BMP_pressure;BME280_temperature;BME280_humidity;BME280_pressure;Samples;Min_cycle;Max_cycle;Signal;HPM_P1;HPM_P2
2024/04/18 00:00:32;;;;;;;;;;;;;;;19.92;46.62;100682.38;2235712;26;5863;-73
2024/04/18 00:01:34;;;;;;;;;;;;;;;19.92;46.92;100682.38;2236774;26;2294;-73
2024/04/18 00:02:35;;;;;;;;;;;;;;;19.92;46.98;100687.38;2236023;26;2182;-73
2024/04/18 00:03:37;;;;;;;;;;;;;;;19.91;46.89;100683.78;2235467;26;2066;-73
2024/04/18 00:04:39;;;;;;;;;;;;;;;19.90;46.66;100685.16;2238714;26;2304;-73
2024/04/18 00:05:41;;;;;;;;;;;;;;;19.91;46.99;100686.66;2246665;26;2183;-72
2024/04/18 00:06:42;;;;;;;;;;;;;;;19.90;47.19;100688.03;2237884;26;2159;-73
2024/04/18 00:07:44;;;;;;;;;;;;;;;19.90;46.72;100688.03;2234564;26;2274;-73
2024/04/18 00:08:45;;;;;;;;;;;;;;;19.90;47.19;100690.91;2238977;26;2176;-73
2024/04/18 00:09:47;;;;;;;;;;;;;;;19.90;46.89;100687.28;2237682;26;2217;-73
2024/04/18 00:10:51;;;;;;;;;;;;;;;19.90;46.81;100695.91;2242284;26;2300;-73
2024/04/18 00:11:53;;;;;;;;;;;;;;;19.89;46.83;100692.31;2246944;26;2156;-73
2024/04/18 00:12:55;;;;;;;;;;;;;;;19.89;47.20;100692.31;2241156;26;2022;-73
2024/04/18 00:13:56;;;;;;;;;;;;;;;19.89;47.31;100695.16;2238633;26;2343;-72
2024/04/18 00:14:58;;;;;;;;;;;;;;;19.89;46.76;100700.91;2237504;26;2347;-73
2024/04/18 00:15:59;;;;;;;;;;;;;;;19.88;46.95;100693.69;2236570;26;2325;-73
2024/04/18 00:17:00;;;;;;;;;;;;;;;19.88;47.20;100696.53;2235805;26;2253;-73
2024/04/18 00:18:02;;;;;;;;;;;;;;;19.88;46.60;100693.69;2236221;26;2286;-73
2024/04/18 00:19:04;;;;;;;;;;;;;;;19.88;46.98;100685.06;2235247;26;2277;-72
2024/04/18 00:20:05;;;;;;;;;;;;;;;19.87;46.86;100692.19;2241690;26;2302;-74
2024/04/18 00:21:07;;;;;;;;;;;;;;;19.87;46.75;100695.06;2237553;26;2137;-73
2024/04/18 00:22:08;;;;;;;;;;;;;;;19.86;46.93;100697.22;2247084;26;2136;-73
2024/04/18 00:23:10;;;;;;;;;;;;;;;19.86;47.19;100699.34;2236772;26;2155;-73
2024/04/18 00:24:11;;;;;;;;;;;;;;;19.86;47.00;100690.72;2238500;26;2073;-73
2024/04/18 00:25:13;;;;;;;;;;;;;;;19.86;46.66;100696.47;2246693;26;2315;-72
2024/04/18 00:26:14;;;;;;;;;;;;;;;19.86;46.96;100699.34;2237487;26;2303;-73
2024/04/18 00:27:16;;;;;;;;;;;;;;;20.45;45.33;100692.59;2238132;26;2177;-73
2024/04/18 00:28:17;;;;;;;;;;;;;;;20.05;46.55;100693.03;2237938;26;2121;-73
2024/04/18 00:29:19;;;;;;;;;;;;;;;19.94;46.97;100698.97;2238107;26;2230;-73
2024/04/18 00:30:20;;;;;;;;;;;;;;;19.89;46.52;100703.78;2235230;26;5971;-73
2024/04/18 00:31:22;;;;;;;;;;;;;;;19.85;46.84;100703.59;2239065;26;2411;-73
2024/04/18 00:32:23;;;;;;;;;;;;;;;19.83;47.29;100697.75;2236873;26;2125;-73
2024/04/18 00:33:25;;;;;;;;;;;;;;;19.82;46.55;100704.91;2236518;26;2210;-73
2024/04/18 00:34:26;;;;;;;;;;;;;;;19.82;47.08;100708.50;2234734;26;2400;-73
2024/04/18 00:35:28;;;;;;;;;;;;;;;19.81;47.19;100698.44;2236889;26;2272;-72
2024/04/18 00:36:29;;;;;;;;;;;;;;;19.81;46.75;100709.16;2236371;26;2433;-73
2024/04/18 00:37:31;;;;;;;;;;;;;;;19.81;46.90;100703.41;2234248;26;2073;-73
2024/04/18 00:38:33;;;;;;;;;;;;;;;19.81;47.00;100697.66;2235962;26;2312;-73
2024/04/18 00:39:34;;;;;;;;;;;;;;;19.80;47.00;100701.94;2231916;26;2244;-73
2024/04/18 00:40:36;;;;;;;;;;;;;;;19.80;47.21;100707.69;2231369;26;2413;-73
2024/04/18 00:41:37;;;;;;;;;;;;;;;19.80;47.25;100699.81;2236702;26;2189;-73
2024/04/18 00:42:39;;;;;;;;;;;;;;;19.80;47.20;100701.94;2237997;26;2157;-73
2024/04/18 00:43:41;;;;;;;;;;;;;;;19.80;46.67;100707.69;2237341;26;2220;-73
2024/04/18 00:44:43;;;;;;;;;;;;;;;19.79;46.71;100701.19;2233611;26;2315;-70
2024/04/18 00:45:44;;;;;;;;;;;;;;;19.78;47.05;100708.31;2239372;26;2193;-73
2024/04/18 00:46:47;;;;;;;;;;;;;;;19.79;46.83;100706.19;2239494;26;2286;-73
2024/04/18 00:47:49;;;;;;;;;;;;;;;19.79;46.99;100709.06;2239829;26;2116;-73
2024/04/18 00:48:50;;;;;;;;;;;;;;;19.78;46.84;100702.56;2236500;26;2384;-73
2024/04/18 00:49:52;;;;;;;;;;;;;;;19.78;47.35;100699.69;2236476;26;2256;-73
2024/04/18 00:50:55;;;;;;;;;;;;;;;19.77;47.00;100708.97;2229560;26;2216;-73
2024/04/18 00:51:57;;;;;;;;;;;;;;;19.77;46.70;100703.22;2231987;26;2106;-73
2024/04/18 00:52:59;;;;;;;;;;;;;;;19.77;47.08;100708.97;2239615;26;2227;-73
2024/04/18 00:54:01;;;;;;;;;;;;;;;19.77;46.79;100712.59;2242672;26;2294;-73
2024/04/18 00:55:03;;;;;;;;;;;;;;;19.76;46.53;100705.34;2236423;26;2188;-73
2024/04/18 00:56:05;;;;;;;;;;;;;;;19.77;47.10;100698.22;2245746;26;2181;-72
2024/04/18 00:57:06;;;;;;;;;;;;;;;19.77;46.77;100708.97;2235683;26;2207;-73
2024/04/18 00:58:09;;;;;;;;;;;;;;;19.76;46.76;100701.75;2234521;26;2104;-72
2024/04/18 00:59:12;;;;;;;;;;;;;;;19.78;46.98;100704.72;2236919;26;2226;-73
2024/04/18 01:00:14;;;;;;;;;;;;;;;19.78;46.37;100710.47;2235454;26;5800;-72
2024/04/18 01:01:16;;;;;;;;;;;;;;;19.79;47.07;100711.94;2233032;26;2207;-73
2024/04/18 01:02:21;;;;;;;;;;;;;;;19.80;46.63;100707.69;2241802;26;2171;-72
2024/04/18 01:03:22;;;;;;;;;;;;;;;19.79;46.84;100709.06;2236787;26;2136;-72
2024/04/18 01:04:24;;;;;;;;;;;;;;;19.79;46.46;100706.19;2237395;26;2229;-73
2024/04/18 01:05:26;;;;;;;;;;;;;;;19.80;46.85;100716.31;2237875;26;2097;-73
2024/04/18 01:06:29;;;;;;;;;;;;;;;19.81;46.29;100709.16;2237569;26;1996;-73
2024/04/18 01:07:31;;;;;;;;;;;;;;;19.81;46.24;100712.03;2231453;26;2204;-73
2024/04/18 01:08:32;;;;;;;;;;;;;;;19.82;46.67;100714.25;2234574;26;2214;-73
2024/04/18 01:09:34;;;;;;;;;;;;;;;19.81;46.82;100720.66;2236683;26;2383;-73
2024/04/18 01:10:35;;;;;;;;;;;;;;;19.82;46.60;100710.66;2232198;26;2184;-73
2024/04/18 01:11:37;;;;;;;;;;;;;;;19.82;47.18;100710.66;2234062;26;2330;-72
2024/04/18 01:12:38;;;;;;;;;;;;;;;19.82;47.31;100717.13;2239204;26;2363;-73
2024/04/18 01:13:40;;;;;;;;;;;;;;;19.83;47.01;100712.13;2237609;26;2013;-73
2024/04/18 01:14:41;;;;;;;;;;;;;;;19.84;46.83;100713.63;2235275;26;2297;-73
2024/04/18 01:15:43;;;;;;;;;;;;;;;19.84;46.88;100717.22;2236751;26;2268;-73
2024/04/18 01:16:44;;;;;;;;;;;;;;;19.86;46.60;100710.84;2239068;26;2319;-73
2024/04/18 01:17:46;;;;;;;;;;;;;;;19.85;46.96;100721.56;2236974;26;2197;-73
2024/04/18 01:18:47;;;;;;;;;;;;;;;19.87;47.06;100720.94;2236469;26;2170;-73
2024/04/18 01:19:49;;;;;;;;;;;;;;;19.86;46.62;100713.72;2235788;26;2238;-73
2024/04/18 01:20:50;;;;;;;;;;;;;;;19.85;47.13;100715.84;2234292;26;2275;-73
2024/04/18 01:21:52;;;;;;;;;;;;;;;19.85;46.76;100721.56;2236164;26;2450;-73
2024/04/18 01:22:53;;;;;;;;;;;;;;;19.85;47.07;100720.84;2236226;26;2323;-73
2024/04/18 01:23:55;;;;;;;;;;;;;;;19.86;46.84;100716.59;2240792;26;2187;-73
2024/04/18 01:24:56;;;;;;;;;;;;;;;19.86;47.03;100719.47;2230673;26;2208;-73
2024/04/18 01:25:58;;;;;;;;;;;;;;;19.85;47.21;100720.84;2236151;26;2119;-73
2024/04/18 01:26:59;;;;;;;;;;;;;;;19.84;47.17;100720.09;2239350;26;2187;-73
2024/04/18 01:28:01;;;;;;;;;;;;;;;19.84;46.78;100720.09;2232337;26;2282;-73
2024/04/18 01:29:02;;;;;;;;;;;;;;;19.84;47.10;100722.25;2235799;26;2269;-73
2024/04/18 01:30:04;;;;;;;;;;;;;;;19.85;46.99;100717.97;2234923;26;6088;-72
2024/04/18 01:31:06;;;;;;;;;;;;;;;19.83;46.99;100720.75;2226765;26;2331;-73
2024/04/18 01:32:07;;;;;;;;;;;;;;;19.84;47.34;100719.38;2238346;26;2632;-73
2024/04/18 01:33:09;;;;;;;;;;;;;;;19.83;46.79;100723.63;2237378;26;2300;-73
2024/04/18 01:34:10;;;;;;;;;;;;;;;19.83;46.68;100724.34;2238929;26;2127;-73
2024/04/18 01:35:12;;;;;;;;;;;;;;;19.83;47.25;100718.59;2235403;26;2389;-73
2024/04/18 01:36:13;;;;;;;;;;;;;;;19.83;47.45;100717.88;2236630;26;2024;-72
2024/04/18 01:37:15;;;;;;;;;;;;;;;19.83;46.72;100724.34;2236172;26;2335;-73
2024/04/18 01:38:16;;;;;;;;;;;;;;;19.83;46.66;100724.34;2234758;26;2226;-73
2024/04/18 01:39:18;;;;;;;;;;;;;;;19.83;46.96;100723.63;2233725;26;2073;-73
2024/04/18 01:40:19;;;;;;;;;;;;;;;19.83;46.73;100717.88;2232046;26;2185;-73
2024/04/18 01:41:21;;;;;;;;;;;;;;;19.83;47.10;100723.63;2236257;26;2192;-72
2024/04/18 01:42:22;;;;;;;;;;;;;;;19.83;46.75;100720.75;2232009;26;2167;-73
2024/04/18 01:43:24;;;;;;;;;;;;;;;19.83;46.91;100729.38;2235116;26;2393;-73
2024/04/18 01:44:25;;;;;;;;;;;;;;;19.82;46.66;100722.16;2236498;26;2155;-73
2024/04/18 01:45:27;;;;;;;;;;;;;;;19.82;46.61;100727.91;2235546;26;2210;-73
2024/04/18 01:46:28;;;;;;;;;;;;;;;19.82;46.50;100725.03;2236077;26;2156;-72
2024/04/18 01:47:30;;;;;;;;;;;;;;;19.80;46.79;100731.41;2232682;26;2220;-73
2024/04/18 01:48:31;;;;;;;;;;;;;;;19.81;46.98;100726.41;2235725;26;2195;-73
2024/04/18 01:49:33;;;;;;;;;;;;;;;19.81;47.02;100732.13;2237535;26;2295;-74
2024/04/18 01:50:34;;;;;;;;;;;;;;;19.82;46.60;100730.78;2234876;26;2326;-73
2024/04/18 01:51:38;;;;;;;;;;;;;;;19.81;47.11;100732.13;2238708;26;2417;-74
2024/04/18 01:52:39;;;;;;;;;;;;;;;19.81;46.65;100732.13;2233510;26;2163;-73
2024/04/18 01:53:41;;;;;;;;;;;;;;;19.80;47.14;100730.66;2236132;26;2316;-73
2024/04/18 01:54:42;;;;;;;;;;;;;;;19.79;47.09;100735.69;2237677;26;2242;-73
2024/04/18 01:55:44;;;;;;;;;;;;;;;19.81;47.09;100732.13;2235611;26;2151;-73
2024/04/18 01:56:45;;;;;;;;;;;;;;;19.81;46.64;100732.13;2235619;26;2181;-73
2024/04/18 01:57:47;;;;;;;;;;;;;;;19.81;47.00;100732.91;2237732;26;2105;-73
2024/04/18 01:58:48;;;;;;;;;;;;;;;19.80;47.20;100736.41;2232963;26;2281;-72
2024/04/18 01:59:50;;;;;;;;;;;;;;;19.80;47.16;100730.66;2234117;26;2227;-73
2024/04/18 02:00:51;;;;;;;;;;;;;;;19.82;46.83;100742.25;2238280;26;5825;-73
2024/04/18 02:01:53;;;;;;;;;;;;;;;19.81;47.18;100738.66;2230723;26;2266;-73
2024/04/18 02:02:55;;;;;;;;;;;;;;;19.82;47.04;100734.38;2237312;26;2338;-72
2024/04/18 02:03:56;;;;;;;;;;;;;;;19.82;47.11;100737.25;2240637;26;2102;-73
2024/04/18 02:04:58;;;;;;;;;;;;;;;19.84;47.51;100737.34;2242235;26;2216;-73
2024/04/18 02:05:59;;;;;;;;;;;;;;;19.85;47.37;100738.09;2230535;26;2431;-73
2024/04/18 02:07:01;;;;;;;;;;;;;;;19.84;46.90;100742.34;2235510;26;2134;-73
2024/04/18 02:08:02;;;;;;;;;;;;;;;19.85;47.13;100738.09;2236066;26;2531;-73
2024/04/18 02:09:04;;;;;;;;;;;;;;;19.86;47.09;100739.59;2233792;26;2295;-73
2024/04/18 02:10:06;;;;;;;;;;;;;;;19.87;47.57;100735.31;2241912;26;2194;-73
2024/04/18 02:11:07;;;;;;;;;;;;;;;19.87;47.21;100741.06;2237322;26;2169;-73
2024/04/18 02:12:09;;;;;;;;;;;;;;;19.87;47.22;100741.78;2235197;26;2386;-73
2024/04/18 02:13:10;;;;;;;;;;;;;;;19.88;46.94;100745.41;2238571;26;2260;-74
2024/04/18 02:14:12;;;;;;;;;;;;;;;19.88;47.04;100742.53;2236419;26;2266;-72
2024/04/18 02:15:14;;;;;;;;;;;;;;;19.88;46.90;100743.28;2233835;26;2210;-73
2024/04/18 02:16:15;;;;;;;;;;;;;;;19.89;47.23;100744.03;2232204;26;2358;-72
2024/04/18 02:17:17;;;;;;;;;;;;;;;19.88;46.93;100746.16;2236261;26;2539;-73
2024/04/18 02:18:18;;;;;;;;;;;;;;;19.88;47.00;100742.53;2230008;26;2299;-73
2024/04/18 02:19:20;;;;;;;;;;;;;;;19.88;46.89;100749.03;2232810;26;2453;-73
2024/04/18 02:20:21;;;;;;;;;;;;;;;19.88;47.11;100748.28;2236091;26;2241;-73
2024/04/18 02:21:23;;;;;;;;;;;;;;;19.88;47.07;100756.88;2232019;26;2199;-73
2024/04/18 02:22:24;;;;;;;;;;;;;;;19.88;46.80;100749.03;2235162;26;2380;-73
2024/04/18 02:23:26;;;;;;;;;;;;;;;19.89;47.05;100749.78;2235100;26;2267;-72
2024/04/18 02:24:27;;;;;;;;;;;;;;;19.88;47.14;100748.28;2235980;26;2209;-70
2024/04/18 02:25:29;;;;;;;;;;;;;;;19.88;46.75;100754.78;2236567;26;2096;-73
2024/04/18 02:26:33;;;;;;;;;;;;;;;19.87;47.08;100753.28;2234707;26;2150;-73
2024/04/18 02:27:35;;;;;;;;;;;;;;;19.86;47.06;100751.81;2234047;26;2294;-73
2024/04/18 02:28:36;;;;;;;;;;;;;;;19.87;47.38;100753.28;2236286;26;2221;-73
2024/04/18 02:29:38;;;;;;;;;;;;;;;19.87;46.82;100756.16;2239015;26;2188;-73
2024/04/18 02:30:39;;;;;;;;;;;;;;;19.87;47.18;100752.53;2237126;26;5874;-73
2024/04/18 02:31:41;;;;;;;;;;;;;;;19.86;47.45;100757.56;2234697;26;2179;-73
2024/04/18 02:32:42;;;;;;;;;;;;;;;19.86;47.14;100753.94;2234676;26;2294;-73
2024/04/18 02:33:44;;;;;;;;;;;;;;;19.85;46.87;100756.06;2237258;26;2135;-73
2024/04/18 02:34:45;;;;;;;;;;;;;;;19.84;47.44;100760.34;2237989;26;2205;-73
2024/04/18 02:35:47;;;;;;;;;;;;;;;19.84;47.47;100753.84;2235262;26;2445;-73
2024/04/18 02:36:49;;;;;;;;;;;;;;;19.84;46.97;100759.59;2236446;26;2207;-73
2024/04/18 02:37:50;;;;;;;;;;;;;;;19.84;47.27;100760.34;2233912;26;2184;-73
2024/04/18 02:38:52;;;;;;;;;;;;;;;19.84;47.06;100766.09;2234798;26;2316;-73
2024/04/18 02:39:53;;;;;;;;;;;;;;;19.85;47.22;100763.94;2237001;26;2335;-73
2024/04/18 02:41:01;;;;;;;;;;;;;;;19.84;47.71;100760.34;2235769;26;2207;-73
2024/04/18 02:42:03;;;;;;;;;;;;;;;19.85;47.42;100764.69;2240195;26;2152;-73
2024/04/18 02:43:04;;;;;;;;;;;;;;;19.86;47.66;100771.19;2229170;26;2425;-73
2024/04/18 02:44:06;;;;;;;;;;;;;;;19.87;47.00;100770.53;2232916;26;2113;-73
2024/04/18 02:45:07;;;;;;;;;;;;;;;19.87;47.19;100764.03;2240248;26;2304;-73
2024/04/18 02:46:09;;;;;;;;;;;;;;;19.88;47.16;100769.16;2234266;26;2326;-72
2024/04/18 02:47:10;;;;;;;;;;;;;;;19.88;46.91;100766.28;2236441;26;2615;-73
2024/04/18 02:48:12;;;;;;;;;;;;;;;19.88;47.16;100772.03;2243273;26;2105;-73
2024/04/18 02:49:13;;;;;;;;;;;;;;;19.89;47.06;100761.25;2236044;26;2472;-73
2024/04/18 02:50:15;;;;;;;;;;;;;;;19.89;47.17;100767.00;2233095;26;2288;-74
2024/04/18 02:51:16;;;;;;;;;;;;;;;19.90;46.91;100768.50;2232045;26;2374;-73
2024/04/18 02:52:18;;;;;;;;;;;;;;;19.91;47.05;100769.97;2238701;26;2222;-73
2024/04/18 02:53:19;;;;;;;;;;;;;;;19.92;47.45;100765.72;2238284;26;2347;-73
2024/04/18 02:54:21;;;;;;;;;;;;;;;19.92;46.82;100770.72;2233088;26;2307;-73
2024/04/18 02:55:22;;;;;;;;;;;;;;;19.92;47.12;100771.47;2235676;26;2171;-73
2024/04/18 02:56:24;;;;;;;;;;;;;;;19.92;47.05;100765.72;2236522;26;2191;-73
2024/04/18 02:57:25;;;;;;;;;;;;;;;19.93;47.41;100769.31;2234200;26;2103;-73
2024/04/18 02:58:27;;;;;;;;;;;;;;;19.92;47.36;100765.72;2234732;26;2414;-73
2024/04/18 02:59:28;;;;;;;;;;;;;;;19.94;47.10;100770.81;2230624;26;2267;-72
2024/04/18 03:00:30;;;;;;;;;;;;;;;19.95;47.07;100775.94;2235939;26;5961;-73
2024/04/18 03:01:31;;;;;;;;;;;;;;;19.95;46.93;100775.94;2236876;26;2092;-73
2024/04/18 03:02:33;;;;;;;;;;;;;;;19.96;47.04;100765.16;2229935;26;2371;-73
2024/04/18 03:03:34;;;;;;;;;;;;;;;19.96;47.42;100774.53;2234198;26;2327;-72
2024/04/18 03:04:36;;;;;;;;;;;;;;;19.96;47.41;100777.41;2233913;26;2241;-73
2024/04/18 03:05:37;;;;;;;;;;;;;;;19.96;46.91;100771.66;2235690;26;2203;-73
2024/04/18 03:06:39;;;;;;;;;;;;;;;19.96;47.05;100777.41;2236435;26;2325;-73
2024/04/18 03:07:40;;;;;;;;;;;;;;;19.97;46.88;100773.13;2235238;26;2450;-73
2024/04/18 03:08:42;;;;;;;;;;;;;;;19.96;47.03;100777.41;2228393;26;2231;-73
2024/04/18 03:09:44;;;;;;;;;;;;;;;19.97;47.23;100772.38;2232939;26;2265;-73
2024/04/18 03:10:49;;;;;;;;;;;;;;;19.98;46.95;100774.63;2230510;26;2233;-73
2024/04/18 03:11:50;;;;;;;;;;;;;;;19.98;47.46;100780.38;2235861;26;2001;-73
2024/04/18 03:12:52;;;;;;;;;;;;;;;19.99;47.27;100781.09;2237011;26;2328;-73
2024/04/18 03:13:54;;;;;;;;;;;;;;;19.99;47.18;100781.84;2235949;26;2221;-73
2024/04/18 03:14:55;;;;;;;;;;;;;;;19.99;47.24;100778.22;2235952;26;2088;-73
2024/04/18 03:15:57;;;;;;;;;;;;;;;19.98;46.97;100774.63;2232695;26;2275;-72
2024/04/18 03:16:58;;;;;;;;;;;;;;;19.99;47.16;100781.84;2228022;26;2181;-72
2024/04/18 03:18:00;;;;;;;;;;;;;;;19.99;47.45;100787.59;2235742;26;2075;-73
2024/04/18 03:19:01;;;;;;;;;;;;;;;19.99;47.23;100781.84;2233570;26;2304;-73
2024/04/18 03:20:03;;;;;;;;;;;;;;;20.00;47.47;100776.84;2236829;26;2386;-74
2024/04/18 03:21:05;;;;;;;;;;;;;;;19.99;47.32;100784.72;2239349;26;2191;-73
2024/04/18 03:22:06;;;;;;;;;;;;;;;19.99;47.43;100778.97;2234694;26;2457;-73
2024/04/18 03:23:08;;;;;;;;;;;;;;;20.00;47.15;100786.22;2232231;26;2246;-73
2024/04/18 03:24:16;;;;;;;;;;;;;;;19.99;47.71;100787.59;2235824;26;2331;-62
2024/04/18 03:25:18;;;;;;;;;;;;;;;19.99;47.33;100787.59;2235878;26;2382;-61
2024/04/18 03:26:19;;;;;;;;;;;;;;;19.98;47.06;100780.38;2235706;26;2185;-62
2024/04/18 03:27:21;;;;;;;;;;;;;;;19.98;47.36;100780.38;2237299;26;2331;-67
2024/04/18 03:28:22;;;;;;;;;;;;;;;19.98;47.38;100780.38;2234375;26;2204;-70
2024/04/18 03:29:24;;;;;;;;;;;;;;;19.98;47.06;100783.25;2237817;26;2139;-70
2024/04/18 03:30:25;;;;;;;;;;;;;;;19.98;47.56;100783.25;2232927;26;5997;-69
2024/04/18 03:31:26;;;;;;;;;;;;;;;19.99;47.18;100792.59;2230723;26;2117;-70
2024/04/18 03:32:28;;;;;;;;;;;;;;;20.00;47.25;100791.22;2232501;26;2237;-69
2024/04/18 03:33:30;;;;;;;;;;;;;;;19.99;47.00;100793.34;2236578;26;2006;-69
2024/04/18 03:34:31;;;;;;;;;;;;;;;19.99;47.29;100796.22;2234513;26;2153;-69
2024/04/18 03:35:36;;;;;;;;;;;;;;;19.99;47.56;100798.34;2239356;26;2355;-69
2024/04/18 03:36:41;;;;;;;;;;;;;;;20.00;47.48;100791.22;2235013;26;1996;-69
2024/04/18 03:37:43;;;;;;;;;;;;;;;20.01;46.86;100801.31;2245638;26;2326;-70
2024/04/18 03:38:45;;;;;;;;;;;;;;;19.99;46.87;100793.34;2246056;26;2186;-70
2024/04/18 03:39:46;;;;;;;;;;;;;;;20.00;47.21;100794.84;2235853;26;2245;-69
2024/04/18 03:40:55;;;;;;;;;;;;;;;20.00;47.49;100791.97;2234590;26;2116;-70
2024/04/18 03:41:56;;;;;;;;;;;;;;;20.01;46.92;100799.19;2235543;26;2175;-69
2024/04/18 03:42:58;;;;;;;;;;;;;;;20.00;47.61;100797.72;2232980;26;2279;-69
2024/04/18 03:43:59;;;;;;;;;;;;;;;20.00;47.01;100797.72;2226553;26;2304;-69
2024/04/18 03:45:01;;;;;;;;;;;;;;;20.01;47.31;100796.31;2227868;26;2212;-69
2024/04/18 03:46:03;;;;;;;;;;;;;;;20.03;47.36;100798.56;2230262;26;2174;-69
2024/04/18 03:47:04;;;;;;;;;;;;;;;20.03;47.01;100805.03;2235113;26;2356;-69
2024/04/18 03:48:06;;;;;;;;;;;;;;;20.03;47.18;100805.03;2235506;26;2122;-69
2024/04/18 03:49:09;;;;;;;;;;;;;;;20.03;47.28;100804.28;2231663;26;2060;-69
2024/04/18 03:50:10;;;;;;;;;;;;;;;20.04;47.13;100800.78;2234800;26;2299;-70
2024/04/18 03:51:12;;;;;;;;;;;;;;;20.03;47.46;100816.53;2235665;26;2268;-69
2024/04/18 03:52:14;;;;;;;;;;;;;;;20.04;47.36;100809.41;2232021;26;2079;-69
2024/04/18 03:53:16;;;;;;;;;;;;;;;20.04;47.15;100803.66;2236455;26;2179;-69
2024/04/18 03:54:20;;;;;;;;;;;;;;;20.05;47.06;100804.41;2236389;26;2102;-69
2024/04/18 03:55:21;;;;;;;;;;;;;;;20.05;47.38;100801.53;2236251;26;2197;-70
2024/04/18 03:56:23;;;;;;;;;;;;;;;20.06;47.28;100808.75;2235278;26;2391;-69
2024/04/18 03:57:24;;;;;;;;;;;;;;;20.07;47.04;100808.09;2232229;26;2197;-69
2024/04/18 03:58:26;;;;;;;;;;;;;;;20.07;47.36;100808.09;2236007;26;2224;-69
2024/04/18 03:59:27;;;;;;;;;;;;;;;20.08;47.21;100805.97;2258501;26;2252;-69
2024/04/18 04:00:29;;;;;;;;;;;;;;;20.06;46.97;100809.47;2247826;26;5803;-69
2024/04/18 04:01:31;;;;;;;;;;;;;;;20.08;47.20;100808.84;2240227;26;2514;-69
2024/04/18 04:02:32;;;;;;;;;;;;;;;20.08;47.23;100812.44;2235935;26;2134;-69
2024/04/18 04:03:34;;;;;;;;;;;;;;;20.09;47.21;100818.97;2236620;26;2037;-70
2024/04/18 04:04:36;;;;;;;;;;;;;;;20.09;47.44;100810.34;2230958;26;2033;-70
2024/04/18 04:05:37;;;;;;;;;;;;;;;20.10;46.96;100820.44;2232290;26;2170;-70
2024/04/18 04:06:39;;;;;;;;;;;;;;;20.11;47.08;100815.44;2235777;26;2459;-70
2024/04/18 04:07:40;;;;;;;;;;;;;;;20.09;47.02;100816.09;2233241;26;2566;-69
2024/04/18 04:08:42;;;;;;;;;;;;;;;20.10;47.03;100820.44;2231843;26;2234;-69
2024/04/18 04:09:43;;;;;;;;;;;;;;;20.09;46.99;100825.44;2240481;26;2241;-69
2024/04/18 04:10:45;;;;;;;;;;;;;;;20.11;47.22;100815.44;2236195;26;2195;-69
2024/04/18 04:11:46;;;;;;;;;;;;;;;20.11;47.17;100827.66;2232434;26;2162;-70
2024/04/18 04:12:48;;;;;;;;;;;;;;;20.11;47.07;100826.91;2234723;26;2115;-70
2024/04/18 04:13:49;;;;;;;;;;;;;;;20.11;47.59;100821.16;2236154;26;2288;-69
2024/04/18 04:14:51;;;;;;;;;;;;;;;20.10;47.30;100820.44;2233141;26;2422;-70
2024/04/18 04:15:54;;;;;;;;;;;;;;;20.10;47.50;100820.44;2234112;26;2182;-68
2024/04/18 04:16:55;;;;;;;;;;;;;;;20.10;46.93;100826.19;2235577;26;2314;-69
2024/04/18 04:17:56;;;;;;;;;;;;;;;20.09;47.36;100824.72;2233761;26;2215;-69
2024/04/18 04:18:58;;;;;;;;;;;;;;;20.09;47.37;100836.94;2235334;26;2422;-69
2024/04/18 04:20:00;;;;;;;;;;;;;;;20.09;47.24;100831.19;2245087;26;2273;-69
2024/04/18 04:21:01;;;;;;;;;;;;;;;20.08;47.12;100835.44;2232353;26;2512;-71
2024/04/18 04:22:04;;;;;;;;;;;;;;;20.08;47.45;100835.44;2234713;26;2351;-69
2024/04/18 04:23:05;;;;;;;;;;;;;;;20.08;47.28;100844.06;2236463;26;2467;-69
2024/04/18 04:24:07;;;;;;;;;;;;;;;20.09;47.34;100839.09;2236253;26;2240;-69
2024/04/18 04:25:08;;;;;;;;;;;;;;;20.09;47.10;100841.97;2236513;26;2128;-69
2024/04/18 04:26:10;;;;;;;;;;;;;;;20.08;47.52;100841.19;2234959;26;2180;-70
2024/04/18 04:27:11;;;;;;;;;;;;;;;20.08;47.65;100838.31;2244751;26;2263;-69
2024/04/18 04:28:13;;;;;;;;;;;;;;;20.09;47.56;100836.22;2238684;26;2216;-69
2024/04/18 04:29:15;;;;;;;;;;;;;;;20.08;47.32;100841.19;2239917;26;2260;-70
2024/04/18 04:30:16;;;;;;;;;;;;;;;20.08;47.38;100846.94;2237187;26;5819;-69
2024/04/18 04:31:18;;;;;;;;;;;;;;;20.09;47.08;100842.69;2221399;26;2268;-69
2024/04/18 04:32:23;;;;;;;;;;;;;;;20.07;47.05;100848.34;2217782;26;2136;-69
2024/04/18 04:33:28;;;;;;;;;;;;;;;20.09;47.69;100853.47;2214505;26;2256;-68
2024/04/18 04:34:30;;;;;;;;;;;;;;;20.07;47.14;100845.47;2214088;26;2183;-70
2024/04/18 04:35:31;;;;;;;;;;;;;;;20.08;47.29;100852.69;2216377;26;2308;-69
2024/04/18 04:36:34;;;;;;;;;;;;;;;20.08;47.43;100852.69;2217442;26;2448;-69
2024/04/18 04:37:35;;;;;;;;;;;;;;;20.06;47.31;100849.72;2218909;26;2441;-69
2024/04/18 04:38:38;;;;;;;;;;;;;;;20.08;47.18;100846.22;2220784;26;2092;-70
2024/04/18 04:39:40;;;;;;;;;;;;;;;20.08;47.24;100846.94;2213623;26;2314;-69
2024/04/18 04:40:41;;;;;;;;;;;;;;;20.09;47.18;100847.72;2219746;26;2099;-69
2024/04/18 04:41:43;;;;;;;;;;;;;;;20.08;46.90;100852.69;2216668;26;2257;-70
2024/04/18 04:42:44;;;;;;;;;;;;;;;20.08;47.19;100855.56;2214420;26;2231;-68
2024/04/18 04:43:46;;;;;;;;;;;;;;;20.09;47.09;100859.94;2215905;26;2236;-70
2024/04/18 04:44:47;;;;;;;;;;;;;;;20.09;47.63;100859.94;2212835;26;2308;-69
2024/04/18 04:45:54;;;;;;;;;;;;;;;20.09;47.14;100868.56;2218601;26;2249;-69
2024/04/18 04:46:56;;;;;;;;;;;;;;;20.08;47.50;100855.56;2211612;26;2435;-69
2024/04/18 04:47:57;;;;;;;;;;;;;;;20.08;47.18;100866.34;2215631;26;2537;-70
2024/04/18 04:48:59;;;;;;;;;;;;;;;20.07;47.43;100862.72;2215861;26;2284;-74
2024/04/18 04:50:02;;;;;;;;;;;;;;;20.13;47.39;100865.13;2218602;26;2298;-71
2024/04/18 04:51:04;;;;;;;;;;;;;;;19.86;45.39;100871.75;2216415;26;2555;-71
2024/04/18 04:52:06;;;;;;;;;;;;;;;19.39;44.71;100873.03;2217255;26;2345;-70
2024/04/18 04:53:08;;;;;;;;;;;;;;;19.48;46.08;100865.56;2213136;26;2532;-70
2024/04/18 04:54:09;;;;;;;;;;;;;;;19.53;46.45;100863.63;2215269;26;2356;-74
2024/04/18 04:55:11;;;;;;;;;;;;;;;19.69;45.76;100864.47;2214833;26;2589;-71
2024/04/18 04:56:12;;;;;;;;;;;;;;;19.78;45.93;100871.34;2213665;26;2441;-71
2024/04/18 04:57:14;;;;;;;;;;;;;;;19.85;46.00;100867.41;2212043;26;2342;-71
2024/04/18 04:58:16;;;;;;;;;;;;;;;19.91;45.69;100873.44;2212006;26;2287;-71
2024/04/18 04:59:17;;;;;;;;;;;;;;;19.96;45.92;100868.63;2217261;26;2533;-73
2024/04/18 05:00:19;;;;;;;;;;;;;;;19.99;46.09;100881.69;2217482;26;5814;-69
2024/04/18 05:01:20;;;;;;;;;;;;;;;20.02;46.11;100874.66;2216752;26;2227;-71
2024/04/18 05:02:22;;;;;;;;;;;;;;;20.06;46.35;100878.47;2216334;26;2385;-71
2024/04/18 05:03:24;;;;;;;;;;;;;;;20.08;45.73;100875.69;2218985;26;2153;-71
2024/04/18 05:04:25;;;;;;;;;;;;;;;20.09;46.43;100882.94;2215680;26;2487;-71
2024/04/18 05:05:27;;;;;;;;;;;;;;;20.15;45.81;100876.00;2218227;26;2389;-70
2024/04/18 05:06:28;;;;;;;;;;;;;;;20.15;46.06;100884.63;2218325;26;2581;-70
2024/04/18 05:07:30;;;;;;;;;;;;;;;20.18;46.43;100880.44;2216982;26;2280;-68
2024/04/18 05:08:31;;;;;;;;;;;;;;;20.19;46.32;100881.94;2217223;26;2219;-68
2024/04/18 05:09:33;;;;;;;;;;;;;;;20.18;46.44;100883.31;2212947;26;2260;-71
2024/04/18 05:10:41;;;;;;;;;;;;;;;20.21;46.54;100893.53;2216012;26;2537;-74
2024/04/18 05:11:42;;;;;;;;;;;;;;;20.25;46.20;100876.47;2220545;26;2273;-69
2024/04/18 05:12:44;;;;;;;;;;;;;;;20.24;46.06;100886.47;2217962;26;2286;-69
2024/04/18 05:13:46;;;;;;;;;;;;;;;19.97;46.16;100888.09;2217792;26;2618;-68
2024/04/18 05:14:47;;;;;;;;;;;;;;;19.91;46.29;100896.44;2215504;26;2137;-68
2024/04/18 05:15:48;;;;;;;;;;;;;;;19.93;46.88;100893.66;2210785;26;2089;-68
2024/04/18 05:16:50;;;;;;;;;;;;;;;19.96;46.69;100895.25;2211942;26;2275;-69
2024/04/18 05:17:52;;;;;;;;;;;;;;;20.00;46.75;100894.69;2211044;26;2236;-67
2024/04/18 05:18:54;;;;;;;;;;;;;;;20.01;46.81;100891.16;2212632;26;2091;-68
2024/04/18 05:19:55;;;;;;;;;;;;;;;20.05;46.68;100905.75;2210020;26;2338;-68
2024/04/18 05:20:57;;;;;;;;;;;;;;;20.07;46.47;100907.97;2214868;26;2239;-67
2024/04/18 05:21:58;;;;;;;;;;;;;;;20.07;45.96;100902.97;2210819;26;2252;-68